Lyndhurst, Ohio
Current Conditions -  °F | °C
As of 7:45 AM on Saturday 25 Oct 2014 (Local Time) from KCGF Reporting Station
Broken Clouds Broken Clouds  
Wind Chill: 54°   Ceiling: 20000
Heat Index: 54°   Visibility: 7mi
Dew Point: 50°   Wind: 9mph
Humidity: 88%   Direction: 220°SW
Pressure: 29.9"   Gusts: NA
Location:  41.5003°N, 81.466°W
Report Text: KCGF 251145Z 22008KT 7SM SCT085 BKN200 12/10 A2990
Loading
Personal Weather Stations






























Interactive Weather Map
Tropical Storm Tracking
New forecast layout! Learn more

10-Day Weather Forecast

Advertisements
Track Severe Weather on mobile